Fashing, Texas
Current Conditions -  °F | °C
As of 5:55 AM on Tuesday 21 Oct 2014 (Local Time) from KPEZ Reporting Station
Clear Clear  
Wind Chill: 62°   Ceiling: Unl
Heat Index: 62°   Visibility: 10mi
Dew Point: 57°   Wind: 0mph
Humidity: 85%   Direction: NA
Pressure: 30.02"   Gusts: NA
Location:  28.7932°N, 98.2489°W
Report Text: KPEZ 211055Z AUTO 00000KT 10SM CLR 17/14 A3002 RMK AO2 T01660140
Loading
Personal Weather Stations






























Interactive Weather Map
Tropical Storm Tracking
New forecast layout! Learn more

10-Day Weather Forecast

Advertisements
Track Severe Weather on mobile